sensor_id;sensor_type;location;lat;lon;timestamp;pressure;altitude;pressure_sealevel;temperature;humidity
74435;BME280;62867;52.038;29.256;2022-09-02T00:03:15;1026.7;;;10.4;63
74435;BME280;62867;52.038;29.256;2022-09-02T00:08:06;1026.8;;;10.3;63.1
74435;BME280;62867;52.038;29.256;2022-09-02T00:13:06;1026.8;;;10.2;63.4
74435;BME280;62867;52.038;29.256;2022-09-02T00:18:05;1026.8;;;10.1;63.5
74435;BME280;62867;52.038;29.256;2022-09-02T00:23:23;1026.8;;;10.1;63.7
74435;BME280;62867;52.038;29.256;2022-09-02T00:28:23;1026.8;;;10.1;63.6
74435;BME280;62867;52.038;29.256;2022-09-02T00:33:35;1026.9;;;10;63.6
74435;BME280;62867;52.038;29.256;2022-09-02T00:38:28;1026.9;;;10;63.5
74435;BME280;62867;52.038;29.256;2022-09-02T00:44:00;1026.9;;;10;63.4
74435;BME280;62867;52.038;29.256;2022-09-02T00:48:52;1026.9;;;9.9;63.4
74435;BME280;62867;52.038;29.256;2022-09-02T00:53:37;1026.9;;;9.9;63.3
74435;BME280;62867;52.038;29.256;2022-09-02T00:58:20;1026.9;;;9.8;63.2
74435;BME280;62867;52.038;29.256;2022-09-02T01:03:33;1026.9;;;9.8;63.4
74435;BME280;62867;52.038;29.256;2022-09-02T01:08:05;1027;;;9.7;63.6
74435;BME280;62867;52.038;29.256;2022-09-02T01:13:38;1027;;;9.7;63.7
74435;BME280;62867;52.038;29.256;2022-09-02T01:18:48;1027;;;9.6;63.8
74435;BME280;62867;52.038;29.256;2022-09-02T01:23:33;1027;;;9.6;64.2
74435;BME280;62867;52.038;29.256;2022-09-02T01:28:35;1027;;;9.6;64.2
74435;BME280;62867;52.038;29.256;2022-09-02T01:33:35;1027.1;;;9.6;64.3
74435;BME280;62867;52.038;29.256;2022-09-02T01:38:13;1027.1;;;9.6;64.3
74435;BME280;62867;52.038;29.256;2022-09-02T01:43:17;1027.1;;;9.6;64.1
74435;BME280;62867;52.038;29.256;2022-09-02T01:48:35;1027.2;;;9.6;64.1
74435;BME280;62867;52.038;29.256;2022-09-02T01:53:05;1027.2;;;9.6;64
74435;BME280;62867;52.038;29.256;2022-09-02T01:58:05;1027.2;;;9.5;64
74435;BME280;62867;52.038;29.256;2022-09-02T02:03:23;1027.2;;;9.5;63.9
74435;BME280;62867;52.038;29.256;2022-09-02T02:08:23;1027.2;;;9.4;64.1
74435;BME280;62867;52.038;29.256;2022-09-02T02:13:15;1027.3;;;9.3;64
74435;BME280;62867;52.038;29.256;2022-09-02T02:18:27;1027.3;;;9.3;64.1
74435;BME280;62867;52.038;29.256;2022-09-02T02:23:29;1027.4;;;9.2;64.1
74435;BME280;62867;52.038;29.256;2022-09-02T02:28:51;1027.5;;;9.2;64
74435;BME280;62867;52.038;29.256;2022-09-02T02:33:47;1027.5;;;9.2;64.2
74435;BME280;62867;52.038;29.256;2022-09-02T02:38:15;1027.5;;;9.1;64.3
74435;BME280;62867;52.038;29.256;2022-09-02T02:43:15;1027.5;;;9.1;64.2
74435;BME280;62867;52.038;29.256;2022-09-02T02:48:05;1027.5;;;9;64.3
74435;BME280;62867;52.038;29.256;2022-09-02T02:53:37;1027.5;;;8.9;64.3
74435;BME280;62867;52.038;29.256;2022-09-02T02:58:16;1027.5;;;8.8;64.3
74435;BME280;62867;52.038;29.256;2022-09-02T03:03:06;1027.6;;;8.7;64.7
74435;BME280;62867;52.038;29.256;2022-09-02T03:08:37;1027.6;;;8.7;65
74435;BME280;62867;52.038;29.256;2022-09-02T03:13:49;1027.7;;;8.6;65.2
74435;BME280;62867;52.038;29.256;2022-09-02T03:18:37;1027.7;;;8.5;65.7
74435;BME280;62867;52.038;29.256;2022-09-02T03:23:42;1027.8;;;8.5;65.9
74435;BME280;62867;52.038;29.256;2022-09-02T03:28:53;1027.9;;;8.5;65.8
74435;BME280;62867;52.038;29.256;2022-09-02T03:33:13;1028;;;8.5;66.1
74435;BME280;62867;52.038;29.256;2022-09-02T03:38:15;1028;;;8.5;66.1
74435;BME280;62867;52.038;29.256;2022-09-02T03:43:39;1028.1;;;8.6;66
74435;BME280;62867;52.038;29.256;2022-09-02T03:48:51;1028.2;;;8.6;65.9
74435;BME280;62867;52.038;29.256;2022-09-02T03:53:37;1028.3;;;8.7;65.9
74435;BME280;62867;52.038;29.256;2022-09-02T03:58:40;1028.3;;;8.7;66
74435;BME280;62867;52.038;29.256;2022-09-02T04:03:37;1028.4;;;8.8;65.9
74435;BME280;62867;52.038;29.256;2022-09-02T04:08:25;1028.4;;;8.9;66
74435;BME280;62867;52.038;29.256;2022-09-02T04:13:37;1028.5;;;9.1;66.1
74435;BME280;62867;52.038;29.256;2022-09-02T04:18:37;1028.5;;;9.3;65.9
74435;BME280;62867;52.038;29.256;2022-09-02T04:23:15;1028.6;;;9.5;65.9
74435;BME280;62867;52.038;29.256;2022-09-02T04:28:15;1028.6;;;9.8;65.7
74435;BME280;62867;52.038;29.256;2022-09-02T04:33:23;1028.6;;;10.2;65.1
74435;BME280;62867;52.038;29.256;2022-09-02T04:38:50;1028.6;;;10.6;64.5
74435;BME280;62867;52.038;29.256;2022-09-02T04:43:39;1028.7;;;11;64
74435;BME280;62867;52.038;29.256;2022-09-02T04:48:17;1028.7;;;11.4;63.5
74435;BME280;62867;52.038;29.256;2022-09-02T04:53:27;1028.7;;;11.7;63.1
74435;BME280;62867;52.038;29.256;2022-09-02T04:58:17;1028.8;;;12;62.5
74435;BME280;62867;52.038;29.256;2022-09-02T05:03:51;1028.8;;;12.4;61.9
74435;BME280;62867;52.038;29.256;2022-09-02T05:08:27;1028.9;;;12.7;61.1
74435;BME280;62867;52.038;29.256;2022-09-02T05:13:05;1028.9;;;13;60.4
74435;BME280;62867;52.038;29.256;2022-09-02T05:18:05;1028.9;;;13.3;60.2
74435;BME280;62867;52.038;29.256;2022-09-02T05:23:17;1028.9;;;13.6;58.9
74435;BME280;62867;52.038;29.256;2022-09-02T05:28:15;1029;;;13.8;58.1
74435;BME280;62867;52.038;29.256;2022-09-02T05:33:06;1029;;;14.1;57.7
74435;BME280;62867;52.038;29.256;2022-09-02T05:38:38;1029;;;14.3;57.2
74435;BME280;62867;52.038;29.256;2022-09-02T05:43:40;1029;;;14.5;57
74435;BME280;62867;52.038;29.256;2022-09-02T05:48:27;1029.1;;;14.8;56.6
74435;BME280;62867;52.038;29.256;2022-09-02T05:53:54;1029.1;;;15;55.8
74435;BME280;62867;52.038;29.256;2022-09-02T05:58:37;1029.1;;;15.1;54.7
74435;BME280;62867;52.038;29.256;2022-09-02T06:03:05;1029.1;;;15.3;53.8
74435;BME280;62867;52.038;29.256;2022-09-02T06:08:05;1029.1;;;15.5;54.1
74435;BME280;62867;52.038;29.256;2022-09-02T06:13:28;1029.1;;;15.7;53.2
74435;BME280;62867;52.038;29.256;2022-09-02T06:18:49;1029.2;;;15.8;52
74435;BME280;62867;52.038;29.256;2022-09-02T06:23:37;1029.2;;;16;51.8
74435;BME280;62867;52.038;29.256;2022-09-02T06:28:53;1029.3;;;16.2;51.3
74435;BME280;62867;52.038;29.256;2022-09-02T06:33:33;1029.3;;;16.3;51.6
74435;BME280;62867;52.038;29.256;2022-09-02T06:38:38;1029.3;;;16.5;51.4
74435;BME280;62867;52.038;29.256;2022-09-02T06:43:27;1029.3;;;16.7;50.9
74435;BME280;62867;52.038;29.256;2022-09-02T06:48:37;1029.4;;;16.9;50.3
74435;BME280;62867;52.038;29.256;2022-09-02T06:53:49;1029.4;;;17.1;50
74435;BME280;62867;52.038;29.256;2022-09-02T06:58:25;1029.5;;;17.3;49.1
74435;BME280;62867;52.038;29.256;2022-09-02T07:03:15;1029.5;;;17.5;48.6
74435;BME280;62867;52.038;29.256;2022-09-02T07:08:51;1029.6;;;17.7;48
74435;BME280;62867;52.038;29.256;2022-09-02T07:13:51;1029.6;;;17.9;48
74435;BME280;62867;52.038;29.256;2022-09-02T07:18:27;1029.6;;;18.2;47.5
74435;BME280;62867;52.038;29.256;2022-09-02T07:23:08;1029.6;;;18.4;47
74435;BME280;62867;52.038;29.256;2022-09-02T07:28:51;1029.7;;;18.7;46.9
74435;BME280;62867;52.038;29.256;2022-09-02T07:33:47;1029.6;;;19;46.4
74435;BME280;62867;52.038;29.256;2022-09-02T07:38:27;1029.6;;;19.2;45.9
74435;BME280;62867;52.038;29.256;2022-09-02T07:43:15;1029.6;;;19.4;44.7
74435;BME280;62867;52.038;29.256;2022-09-02T07:48:05;1029.6;;;19.5;43.3
74435;BME280;62867;52.038;29.256;2022-09-02T07:53:27;1029.6;;;19.8;43.3
74435;BME280;62867;52.038;29.256;2022-09-02T07:58:28;1029.6;;;20;42.1
74435;BME280;62867;52.038;29.256;2022-09-02T08:03:26;1029.6;;;20.2;40.9
74435;BME280;62867;52.038;29.256;2022-09-02T08:08:27;1029.6;;;20.4;40.2
74435;BME280;62867;52.038;29.256;2022-09-02T08:13:40;1029.6;;;20.6;40
74435;BME280;62867;52.038;29.256;2022-09-02T08:18:17;1029.5;;;20.9;39.8
74435;BME280;62867;52.038;29.256;2022-09-02T08:23:49;1029.5;;;20.9;38.9
74435;BME280;62867;52.038;29.256;2022-09-02T08:28:37;1029.5;;;20.8;39
74435;BME280;62867;52.038;29.256;2022-09-02T08:33:24;1029.5;;;21;39.1
74435;BME280;62867;52.038;29.256;2022-09-02T08:38:40;1029.4;;;21.2;38.3
74435;BME280;62867;52.038;29.256;2022-09-02T08:43:18;1029.5;;;21.2;36.7
74435;BME280;62867;52.038;29.256;2022-09-02T08:48:54;1029.4;;;21.4;36.2
74435;BME280;62867;52.038;29.256;2022-09-02T08:53:49;1029.3;;;21.6;35
74435;BME280;62867;52.038;29.256;2022-09-02T08:58:50;1029.4;;;21.7;34.7
74435;BME280;62867;52.038;29.256;2022-09-02T09:08:53;1029.4;;;21.4;35
74435;BME280;62867;52.038;29.256;2022-09-02T09:14:34;1029.4;;;21.9;34.4
74435;BME280;62867;52.038;29.256;2022-09-02T09:18:42;1029.4;;;22;34.3
74435;BME280;62867;52.038;29.256;2022-09-02T09:23:29;1029.4;;;21.4;35
74435;BME280;62867;52.038;29.256;2022-09-02T09:28:15;1029.4;;;21.7;34.7
74435;BME280;62867;52.038;29.256;2022-09-02T09:33:14;1029.4;;;22.2;33.8
74435;BME280;62867;52.038;29.256;2022-09-02T09:38:29;1029.4;;;22.7;32.7
74435;BME280;62867;52.038;29.256;2022-09-02T09:43:53;1029.3;;;22.7;31.6
74435;BME280;62867;52.038;29.256;2022-09-02T09:48:43;1029.3;;;22.4;32.9
74435;BME280;62867;52.038;29.256;2022-09-02T09:53:19;1029.4;;;21.7;33.7
74435;BME280;62867;52.038;29.256;2022-09-02T09:58:15;1029.3;;;21.8;33.7
74435;BME280;62867;52.038;29.256;2022-09-02T10:08:49;1029.4;;;23;32.2
74435;BME280;62867;52.038;29.256;2022-09-02T10:13:29;1029.4;;;22.7;32.3
74435;BME280;62867;52.038;29.256;2022-09-02T10:18:29;1029.4;;;22.9;32.1
74435;BME280;62867;52.038;29.256;2022-09-02T10:23:10;1029.3;;;23.5;31.4
74435;BME280;62867;52.038;29.256;2022-09-02T10:28:58;1029.4;;;23.4;31.4
74435;BME280;62867;52.038;29.256;2022-09-02T10:34:10;1029.4;;;22.8;31.3
74435;BME280;62867;52.038;29.256;2022-09-02T10:38:31;1029.3;;;23.2;31.3
74435;BME280;62867;52.038;29.256;2022-09-02T10:43:48;1029.3;;;23.7;29.8
74435;BME280;62867;52.038;29.256;2022-09-02T10:48:57;1029.3;;;24.1;28.2
74435;BME280;62867;52.038;29.256;2022-09-02T10:54:48;1029.3;;;24.4;28.2
74435;BME280;62867;52.038;29.256;2022-09-02T10:58:54;1029.3;;;24.8;28.6
74435;BME280;62867;52.038;29.256;2022-09-02T11:03:56;1029.3;;;25.2;27.6
74435;BME280;62867;52.038;29.256;2022-09-02T11:08:20;1029.3;;;25.5;27.9
74435;BME280;62867;52.038;29.256;2022-09-02T11:13:08;1029.3;;;25.8;27.5
74435;BME280;62867;52.038;29.256;2022-09-02T11:18:44;1029.3;;;26;27.2
74435;BME280;62867;52.038;29.256;2022-09-02T11:23:45;1029.3;;;26.2;27.4
74435;BME280;62867;52.038;29.256;2022-09-02T11:30:01;1029.3;;;26.3;26.9
74435;BME280;62867;52.038;29.256;2022-09-02T11:33:44;1029.3;;;25.8;26.3
74435;BME280;62867;52.038;29.256;2022-09-02T11:38:43;1029.3;;;25.4;26.6
74435;BME280;62867;52.038;29.256;2022-09-02T11:43:32;1029.2;;;25.6;26.6
74435;BME280;62867;52.038;29.256;2022-09-02T11:53:23;1029.1;;;25.5;27.5
74435;BME280;62867;52.038;29.256;2022-09-02T11:58:51;1029.1;;;24.5;28.1
74435;BME280;62867;52.038;29.256;2022-09-02T12:03:10;1029.1;;;24.2;28.4
74435;BME280;62867;52.038;29.256;2022-09-02T12:13:53;1029.1;;;28.8;24.1
74435;BME280;62867;52.038;29.256;2022-09-02T12:18:42;1029;;;29.4;23.7
74435;BME280;62867;52.038;29.256;2022-09-02T12:24:02;1029;;;28.6;23.7
74435;BME280;62867;52.038;29.256;2022-09-02T12:28:13;1029;;;28.6;22.8
74435;BME280;62867;52.038;29.256;2022-09-02T12:33:51;1028.9;;;28.8;22.6
74435;BME280;62867;52.038;29.256;2022-09-02T12:38:53;1028.9;;;27.2;24.1
74435;BME280;62867;52.038;29.256;2022-09-02T12:43:34;1028.9;;;25.8;26.3
74435;BME280;62867;52.038;29.256;2022-09-02T12:48:10;1028.8;;;26;26
74435;BME280;62867;52.038;29.256;2022-09-02T12:53:48;1028.9;;;25.1;27.3
74435;BME280;62867;52.038;29.256;2022-09-02T12:58:48;1029;;;24;28.6
74435;BME280;62867;52.038;29.256;2022-09-02T13:08:40;1029.1;;;22.6;30.5
74435;BME280;62867;52.038;29.256;2022-09-02T13:19:11;1029;;;21.4;32.5
74435;BME280;62867;52.038;29.256;2022-09-02T13:28:56;1029;;;20.7;33.1
74435;BME280;62867;52.038;29.256;2022-09-02T13:33:37;1029;;;20.3;35.3
74435;BME280;62867;52.038;29.256;2022-09-02T13:38:10;1029.1;;;20;37
74435;BME280;62867;52.038;29.256;2022-09-02T13:43:25;1029;;;19.7;37.5
74435;BME280;62867;52.038;29.256;2022-09-02T13:48:40;1029.1;;;19.4;37.8
74435;BME280;62867;52.038;29.256;2022-09-02T13:53:52;1029.1;;;19.1;38.3
74435;BME280;62867;52.038;29.256;2022-09-02T13:58:40;1029.1;;;18.9;39.1
74435;BME280;62867;52.038;29.256;2022-09-02T14:03:48;1029.1;;;18.6;41
74435;BME280;62867;52.038;29.256;2022-09-02T14:08:30;1029.1;;;18.4;42.3
74435;BME280;62867;52.038;29.256;2022-09-02T14:13:56;1029.1;;;18.2;44
74435;BME280;62867;52.038;29.256;2022-09-02T14:18:26;1029.1;;;18;43.8
74435;BME280;62867;52.038;29.256;2022-09-02T14:23:38;1029.2;;;18;43.5
74435;BME280;62867;52.038;29.256;2022-09-02T14:28:18;1029.2;;;17.9;44.9
74435;BME280;62867;52.038;29.256;2022-09-02T14:33:37;1029.2;;;17.9;44.4
74435;BME280;62867;52.038;29.256;2022-09-02T14:38:06;1029.1;;;18;45.3
74435;BME280;62867;52.038;29.256;2022-09-02T14:43:59;1029.1;;;18;45.5
74435;BME280;62867;52.038;29.256;2022-09-02T14:49:07;1029.1;;;18;45.4
74435;BME280;62867;52.038;29.256;2022-09-02T14:53:32;1029.1;;;18;45.2
74435;BME280;62867;52.038;29.256;2022-09-02T14:58:18;1029;;;18;44.6
74435;BME280;62867;52.038;29.256;2022-09-02T15:03:52;1029;;;17.9;44.1
74435;BME280;62867;52.038;29.256;2022-09-02T15:08:54;1029;;;17.8;44.6
74435;BME280;62867;52.038;29.256;2022-09-02T15:13:32;1029;;;17.6;45.6
74435;BME280;62867;52.038;29.256;2022-09-02T15:18:42;1029.1;;;17.5;46.1
74435;BME280;62867;52.038;29.256;2022-09-02T15:23:18;1029.1;;;17.3;46.5
74435;BME280;62867;52.038;29.256;2022-09-02T15:28:40;1029.1;;;17.2;46.7
74435;BME280;62867;52.038;29.256;2022-09-02T15:33:18;1029.1;;;17.2;46.9
74435;BME280;62867;52.038;29.256;2022-09-02T15:38:28;1029;;;17.1;46.8
74435;BME280;62867;52.038;29.256;2022-09-02T15:43:42;1029;;;17.1;47
74435;BME280;62867;52.038;29.256;2022-09-02T15:48:44;1029;;;16.9;47.4
74435;BME280;62867;52.038;29.256;2022-09-02T15:53:32;1029;;;16.8;47.9
74435;BME280;62867;52.038;29.256;2022-09-02T15:58:57;1029;;;16.6;47.9
74435;BME280;62867;52.038;29.256;2022-09-02T16:03:40;1028.9;;;16.4;48.3
74435;BME280;62867;52.038;29.256;2022-09-02T16:08:08;1029;;;16.1;48.8
74435;BME280;62867;52.038;29.256;2022-09-02T16:13:08;1029;;;15.9;48.8
74435;BME280;62867;52.038;29.256;2022-09-02T16:18:18;1028.9;;;15.7;49.3
74435;BME280;62867;52.038;29.256;2022-09-02T16:23:56;1029;;;15.5;50.1
74435;BME280;62867;52.038;29.256;2022-09-02T16:28:41;1029;;;15.2;50.4
74435;BME280;62867;52.038;29.256;2022-09-02T16:33:51;1029;;;15.1;51.2
74435;BME280;62867;52.038;29.256;2022-09-02T16:38:44;1029;;;14.9;51.2
74435;BME280;62867;52.038;29.256;2022-09-02T16:43:32;1029.1;;;14.7;51.3
74435;BME280;62867;52.038;29.256;2022-09-02T16:48:08;1029.2;;;14.5;51.5
74435;BME280;62867;52.038;29.256;2022-09-02T16:53:40;1029.2;;;14.3;51.8
74435;BME280;62867;52.038;29.256;2022-09-02T16:58:08;1029.3;;;14.1;52.2
74435;BME280;62867;52.038;29.256;2022-09-02T17:03:09;1029.3;;;13.9;53.2
74435;BME280;62867;52.038;29.256;2022-09-02T17:08:18;1029.3;;;13.7;54
74435;BME280;62867;52.038;29.256;2022-09-02T17:13:55;1029.4;;;13.5;54.3
74435;BME280;62867;52.038;29.256;2022-09-02T17:18:56;1029.5;;;13.3;54.8
74435;BME280;62867;52.038;29.256;2022-09-02T17:23:32;1029.5;;;13.2;54.9
74435;BME280;62867;52.038;29.256;2022-09-02T17:28:32;1029.6;;;13.1;55.2
74435;BME280;62867;52.038;29.256;2022-09-02T17:33:53;1029.6;;;13;55.2
74435;BME280;62867;52.038;29.256;2022-09-02T17:38:54;1029.6;;;12.9;55.2
74435;BME280;62867;52.038;29.256;2022-09-02T17:43:30;1029.6;;;12.9;55.4
74435;BME280;62867;52.038;29.256;2022-09-02T17:48:18;1029.7;;;12.8;55.6
74435;BME280;62867;52.038;29.256;2022-09-02T17:53:18;1029.7;;;12.8;56.1
74435;BME280;62867;52.038;29.256;2022-09-02T17:58:08;1029.7;;;12.7;56.4
74435;BME280;62867;52.038;29.256;2022-09-02T18:03:37;1029.7;;;12.6;56.7
74435;BME280;62867;52.038;29.256;2022-09-02T18:08:32;1029.8;;;12.5;56.9
74435;BME280;62867;52.038;29.256;2022-09-02T18:13:32;1029.8;;;12.4;57
74435;BME280;62867;52.038;29.256;2022-09-02T18:18:49;1029.9;;;12.4;57.2
74435;BME280;62867;52.038;29.256;2022-09-02T18:23:59;1029.8;;;12.3;57.5
74435;BME280;62867;52.038;29.256;2022-09-02T18:28:51;1029.8;;;12.3;57.4
74435;BME280;62867;52.038;29.256;2022-09-02T18:33:57;1029.8;;;12.2;57.3
74435;BME280;62867;52.038;29.256;2022-09-02T18:43:16;1029.9;;;12.1;57.4
74435;BME280;62867;52.038;29.256;2022-09-02T18:48:21;1030;;;12;57.8
74435;BME280;62867;52.038;29.256;2022-09-02T18:53:45;1030;;;12;58.1
74435;BME280;62867;52.038;29.256;2022-09-02T18:58:55;1030;;;11.9;58.3
74435;BME280;62867;52.038;29.256;2022-09-02T19:03:36;1030;;;11.8;58.6
74435;BME280;62867;52.038;29.256;2022-09-02T19:08:43;1030;;;11.8;58.9
74435;BME280;62867;52.038;29.256;2022-09-02T19:13:44;1030;;;11.8;58.7
74435;BME280;62867;52.038;29.256;2022-09-02T19:18:30;1030.1;;;11.8;58.7
74435;BME280;62867;52.038;29.256;2022-09-02T19:23:18;1030.2;;;11.7;58.3
74435;BME280;62867;52.038;29.256;2022-09-02T19:28:42;1030.2;;;11.7;58.4
74435;BME280;62867;52.038;29.256;2022-09-02T19:33:08;1030.3;;;11.6;58.6
74435;BME280;62867;52.038;29.256;2022-09-02T19:38:08;1030.3;;;11.6;58.5
74435;BME280;62867;52.038;29.256;2022-09-02T19:43:28;1030.3;;;11.5;58.7
74435;BME280;62867;52.038;29.256;2022-09-02T19:48:56;1030.3;;;11.5;58.8
74435;BME280;62867;52.038;29.256;2022-09-02T19:53:44;1030.3;;;11.4;59.1
74435;BME280;62867;52.038;29.256;2022-09-02T19:58:32;1030.3;;;11.3;59.4
74435;BME280;62867;52.038;29.256;2022-09-02T20:03:30;1030.3;;;11.3;59.3
74435;BME280;62867;52.038;29.256;2022-09-02T20:08:54;1030.3;;;11.3;59.5
74435;BME280;62867;52.038;29.256;2022-09-02T20:13:58;1030.3;;;11.3;59.6
74435;BME280;62867;52.038;29.256;2022-09-02T20:18:20;1030.3;;;11.3;59.7
74435;BME280;62867;52.038;29.256;2022-09-02T20:23:20;1030.4;;;11.3;59.5
74435;BME280;62867;52.038;29.256;2022-09-02T20:28:22;1030.4;;;11.3;59.5
74435;BME280;62867;52.038;29.256;2022-09-02T20:33:38;1030.4;;;11.2;59.5
74435;BME280;62867;52.038;29.256;2022-09-02T20:38:25;1030.4;;;11.2;59.7
74435;BME280;62867;52.038;29.256;2022-09-02T20:43:13;1030.4;;;11.1;59.9
74435;BME280;62867;52.038;29.256;2022-09-02T20:49:33;1030.5;;;11.1;60.1
74435;BME280;62867;52.038;29.256;2022-09-02T20:58:45;1030.5;;;11;60.5
74435;BME280;62867;52.038;29.256;2022-09-02T21:04:28;1030.5;;;11;60.8
74435;BME280;62867;52.038;29.256;2022-09-02T21:09:13;1030.6;;;11;60.7
74435;BME280;62867;52.038;29.256;2022-09-02T21:13:25;1030.6;;;11;60.6
74435;BME280;62867;52.038;29.256;2022-09-02T21:18:28;1030.6;;;11;60.7
74435;BME280;62867;52.038;29.256;2022-09-02T21:23:45;1030.6;;;11;60.6
74435;BME280;62867;52.038;29.256;2022-09-02T21:28:57;1030.6;;;11;60.6
74435;BME280;62867;52.038;29.256;2022-09-02T21:33:36;1030.6;;;11;60.7
74435;BME280;62867;52.038;29.256;2022-09-02T21:38:43;1030.6;;;10.9;60.8
74435;BME280;62867;52.038;29.256;2022-09-02T21:43:51;1030.7;;;10.9;61
74435;BME280;62867;52.038;29.256;2022-09-02T21:48:35;1030.6;;;10.9;61.1
74435;BME280;62867;52.038;29.256;2022-09-02T21:53:21;1030.7;;;10.9;61.2
74435;BME280;62867;52.038;29.256;2022-09-02T21:58:42;1030.7;;;10.9;61.4
74435;BME280;62867;52.038;29.256;2022-09-02T22:03:30;1030.7;;;10.9;61.5
74435;BME280;62867;52.038;29.256;2022-09-02T22:08:09;1030.8;;;10.9;61.3
74435;BME280;62867;52.038;29.256;2022-09-02T22:13:53;1030.8;;;10.9;61.3
74435;BME280;62867;52.038;29.256;2022-09-02T22:18:55;1030.7;;;10.9;61.2
74435;BME280;62867;52.038;29.256;2022-09-02T22:23:42;1030.7;;;10.9;61.1
74435;BME280;62867;52.038;29.256;2022-09-02T22:28:33;1030.7;;;10.9;61.1
74435;BME280;62867;52.038;29.256;2022-09-02T22:33:31;1030.7;;;10.8;61.2
74435;BME280;62867;52.038;29.256;2022-09-02T22:38:52;1030.6;;;10.8;61.5
74435;BME280;62867;52.038;29.256;2022-09-02T22:43:56;1030.6;;;10.7;61.7
74435;BME280;62867;52.038;29.256;2022-09-02T22:48:32;1030.6;;;10.7;61.9
74435;BME280;62867;52.038;29.256;2022-09-02T22:53:08;1030.6;;;10.7;61.9
74435;BME280;62867;52.038;29.256;2022-09-02T22:58:24;1030.6;;;10.6;62.1
74435;BME280;62867;52.038;29.256;2022-09-02T23:03:17;1030.6;;;10.6;62
74435;BME280;62867;52.038;29.256;2022-09-02T23:08:15;1030.6;;;10.6;61.8
74435;BME280;62867;52.038;29.256;2022-09-02T23:14:00;1030.6;;;10.6;61.7
74435;BME280;62867;52.038;29.256;2022-09-02T23:18:47;1030.6;;;10.5;61.7
74435;BME280;62867;52.038;29.256;2022-09-02T23:23:48;1030.6;;;10.5;61.7
74435;BME280;62867;52.038;29.256;2022-09-02T23:28:30;1030.7;;;10.5;61.7
74435;BME280;62867;52.038;29.256;2022-09-02T23:33:55;1030.7;;;10.4;61.7
74435;BME280;62867;52.038;29.256;2022-09-02T23:38:45;1030.8;;;10.4;61.8
74435;BME280;62867;52.038;29.256;2022-09-02T23:43:06;1030.8;;;10.4;62
74435;BME280;62867;52.038;29.256;2022-09-02T23:53:29;1030.9;;;10.3;62.4
